WetterOnline ( https://www.wetteronline.ch )

Wetter aktuell Erfurt

Aktuelles Wetter: Erfurt/Bindersleben (322m)

6-stündlich | Neueste Meldungen
Ortszeit Temperatur Wetter
So, 25.02. 1:00 2.4° C wolkenlos
Sa, 24.02. 19:00 5.2° C bedeckt
Sa, 24.02. 13:00 6.3° C bewölkt
Sa, 24.02. 7:00 1.5° C wolkig
Sa, 24.02. 1:00 2.9° C wolkenlos
Fr, 23.02. 19:00 3.4° C wolkig
Fr, 23.02. 13:00 6.4° C bewölkt
Fr, 23.02. 7:00 3.9° C bedeckt
Ortszeit Temperatur Wetter
So, 25.02. 5:00 1.8° C wolkig
So, 25.02. 4:50 1.8° C wolkig
So, 25.02. 4:40 1.7° C bedeckt
So, 25.02. 4:30 2.4° C wolkig
So, 25.02. 4:20 2.4° C wolkig
So, 25.02. 4:10 2.1° C leicht bewölkt
So, 25.02. 4:00 1.9° C fast wolkenlos
So, 25.02. 3:30 2.1° C wolkenlos
So, 25.02. 3:00 2.5° C wolkenlos
So, 25.02. 2:30 2.5° C wolkenlos
So, 25.02. 2:00 2.7° C fast wolkenlos
So, 25.02. 1:30 2.4° C wolkenlos
Ortszeit Relative Feuchte Sichtweite
So, 25.02. 1:00 75% 65 km
Sa, 24.02. 19:00 62% >70 km
Sa, 24.02. 13:00 70% >70 km
Sa, 24.02. 7:00 82% 60 km
Sa, 24.02. 1:00 79% 50 km
Fr, 23.02. 19:00 73% 55 km
Fr, 23.02. 13:00 59% 50 km
Fr, 23.02. 7:00 73% >70 km
Ortszeit Relative Feuchte Sichtweite
So, 25.02. 5:00 83% 60 km
So, 25.02. 4:50 83% -
So, 25.02. 4:40 83% -
So, 25.02. 4:30 80% >70 km
So, 25.02. 4:20 80% -
So, 25.02. 4:10 82% -
So, 25.02. 4:00 82% >70 km
So, 25.02. 3:30 81% >70 km
So, 25.02. 3:00 78% 60 km
So, 25.02. 2:30 77% 65 km
So, 25.02. 2:00 77% 65 km
So, 25.02. 1:30 76% >70 km
Ortszeit Niederschlagsmenge Niederschlagsart
So, 25.02. 1:00 0.0 l/m2 in 6 Std. -
Sa, 24.02. 19:00 0.0 l/m2 in 12 Std. -
Sa, 24.02. 13:00 0.0 l/m2 in 6 Std. -
Sa, 24.02. 7:00 0.0 l/m2 in 12 Std. -
Sa, 24.02. 1:00 0.0 l/m2 in 6 Std. -
Fr, 23.02. 19:00 0.0 l/m2 in 12 Std. -
Fr, 23.02. 13:00 0.0 l/m2 in 6 Std. -
Fr, 23.02. 7:00 0.3 l/m2 in 12 Std. Regen
Ortszeit Niederschlagsmenge Niederschlagsart
So, 25.02. 5:00 0.0 l/m2 in 1 Std. -
So, 25.02. 4:50 keine Meldung -
So, 25.02. 4:40 keine Meldung -
So, 25.02. 4:30 0.0 l/m2 in 30 Min -
So, 25.02. 4:20 keine Meldung -
So, 25.02. 4:10 keine Meldung -
So, 25.02. 4:00 0.0 l/m2 in 1 Std. -
So, 25.02. 3:30 0.0 l/m2 in 30 Min -
So, 25.02. 3:00 0.0 l/m2 in 1 Std. -
So, 25.02. 2:30 0.0 l/m2 in 30 Min -
So, 25.02. 2:00 0.0 l/m2 in 1 Std. -
So, 25.02. 1:30 0.0 l/m2 in 30 Min -
Ortszeit Stärke Spitze Richtung
km/h Bft. km/h Grad Sektor
So, 25.02. 1:00 14 3 36 180° S
Sa, 24.02. 19:00 22 4 48 200° S
Sa, 24.02. 13:00 26 4 48 220° SW
Sa, 24.02. 7:00 17 3 39 170° S
Sa, 24.02. 1:00 25 4 32 180° S
Fr, 23.02. 19:00 11 2 40 160° S
Fr, 23.02. 13:00 18 3 47 190° S
Fr, 23.02. 7:00 26 4 67 220° SW
Ortszeit Stärke Spitze Richtung
km/h Bft. km/h Grad Sektor
So, 25.02. 5:00 14 3 25 170° S
So, 25.02. 4:50 14 3 - 170° S
So, 25.02. 4:40 17 3 - 170° S
So, 25.02. 4:30 18 3 25 170° S
So, 25.02. 4:20 18 3 - 170° S
So, 25.02. 4:10 19 3 - 170° S
So, 25.02. 4:00 19 3 24 180° S
So, 25.02. 3:30 19 3 24 180° S
So, 25.02. 3:00 19 3 28 170° S
So, 25.02. 2:30 19 3 28 170° S
So, 25.02. 2:00 25 4 32 190° S
So, 25.02. 1:30 18 3 22 200° S
Ortszeit Untergrenze Bedeckung Gattung
total tief tief mittel hoch
So, 25.02. 1:00 - 0/8 0/8 - - -
Sa, 24.02. 19:00 5700 m 8/8 8/8 - - -
Sa, 24.02. 13:00 750 m 8/8 7/8 - - -
Sa, 24.02. 7:00 1500 m 6/8 2/8 - - -
Sa, 24.02. 1:00 - 0/8 0/8 - - -
Fr, 23.02. 19:00 1080 m 7/8 1/8 - - -
Fr, 23.02. 13:00 1080 m 7/8 7/8 - - -
Fr, 23.02. 7:00 5700 m 8/8 8/8 - - -
Ortszeit Bedeckungsgrad in Achtel und Wolkenuntergrenze
So, 25.02. 5:00 8(7200m)
So, 25.02. 4:50 8(7200m)
So, 25.02. 4:40 8
So, 25.02. 4:30 2(6900m) 6(7800m)
So, 25.02. 4:20 2(6900m) 6(7800m)
So, 25.02. 4:10 3
So, 25.02. 4:00 1(8100m)
So, 25.02. 3:30 keine Wolken
So, 25.02. 3:00 keine Wolken
So, 25.02. 2:30 keine Wolken
So, 25.02. 2:00 2(7800m)
So, 25.02. 1:30 keine Wolken
Ortszeit Luftdruck NN (hPa) Tendenz (hPa in 3 Std.)
So, 25.02. 1:00 1008 + 0,8
Sa, 24.02. 19:00 1006 + 1,4
Sa, 24.02. 13:00 1003 + 1,3
Sa, 24.02. 7:00 1001 + 1,0
Sa, 24.02. 1:00 999 - 0,4
Fr, 23.02. 19:00 999 + 0,4
Fr, 23.02. 13:00 998 + 1,3
Fr, 23.02. 7:00 996 + 2,8
Ortszeit Luftdruck NN (hPa) Tendenz (hPa in 3 Std.)
So, 25.02. 5:00 1007 - 0,3
So, 25.02. 4:50 1007 keine Meldung
So, 25.02. 4:40 1008 keine Meldung
So, 25.02. 4:30 1007 - 0,5
So, 25.02. 4:20 1007 keine Meldung
So, 25.02. 4:10 1007 keine Meldung
So, 25.02. 4:00 1008 - 0,5
So, 25.02. 3:30 1008 - 0,6
So, 25.02. 3:00 1008 - 0,2
So, 25.02. 2:30 1008 - 0,3
So, 25.02. 2:00 1008 + 0,1
So, 25.02. 1:30 1008 + 0,7
Ortszeit Schneehöhe (cm)
So, 25.02. 1:00 0
Sa, 24.02. 19:00 0
Sa, 24.02. 13:00 0
Sa, 24.02. 7:00 0
Sa, 24.02. 1:00 0
Fr, 23.02. 19:00 0
Fr, 23.02. 13:00 0
Fr, 23.02. 7:00 0
Ortszeit Schneehöhe (cm)
So, 25.02. 5:00 0
So, 25.02. 4:50 0
So, 25.02. 4:40 -
So, 25.02. 4:30 0
So, 25.02. 4:20 0
So, 25.02. 4:10 -
So, 25.02. 4:00 0
So, 25.02. 3:30 0
So, 25.02. 3:00 0
So, 25.02. 2:30 0
So, 25.02. 2:00 0
So, 25.02. 1:30 0
Link zu dieser Seite / Seite empfehlen

Das Wetter in ...